createdAt,value
2019-02-03T00:01:23.228Z,245.23
2019-02-03T00:03:51.227Z,239.73
2019-02-03T00:06:20.572Z,254.47
2019-02-03T00:08:51.499Z,236.13
2019-02-03T00:11:19.520Z,201.60
2019-02-03T00:13:47.597Z,208.00
2019-02-03T00:16:15.638Z,179.27
2019-02-03T00:18:46.716Z,206.13
2019-02-03T00:21:14.770Z,197.43
2019-02-03T00:23:42.874Z,195.33
2019-02-03T00:26:10.794Z,219.67
2019-02-03T00:28:38.651Z,208.00
2019-02-03T00:31:06.790Z,212.00
2019-02-03T00:33:35.024Z,236.50
2019-02-03T00:36:03.340Z,229.53
2019-02-03T00:38:31.802Z,209.80
2019-02-03T00:41:02.548Z,203.77
2019-02-03T00:43:30.487Z,205.07
2019-02-03T00:46:01.678Z,171.17
2019-02-03T00:48:29.765Z,188.20
2019-02-03T00:50:57.871Z,186.17
2019-02-03T00:53:25.736Z,203.53
2019-02-03T00:55:53.986Z,207.70
2019-02-03T00:58:22.022Z,189.33
2019-02-03T01:00:49.948Z,197.77
2019-02-03T01:03:17.919Z,233.93
2019-02-03T01:05:45.762Z,269.03
2019-02-03T01:08:14.322Z,223.83
2019-02-03T01:10:42.395Z,255.43
2019-02-03T01:13:10.388Z,297.40
2019-02-03T01:15:38.298Z,299.10
2019-02-03T01:18:06.797Z,277.83
2019-02-03T01:20:34.712Z,287.47
2019-02-03T01:23:03.045Z,273.40
2019-02-03T01:25:30.940Z,257.47
2019-02-03T01:27:58.840Z,271.87
2019-02-03T01:30:26.839Z,283.97
2019-02-03T01:32:54.758Z,260.70
2019-02-03T01:35:22.750Z,234.93
2019-02-03T01:37:51.228Z,252.93
2019-02-03T01:40:19.824Z,265.47
2019-02-03T01:42:47.846Z,280.70
2019-02-03T01:45:18.138Z,291.57
2019-02-03T01:47:46.622Z,291.73
2019-02-03T01:50:17.166Z,283.03
2019-02-03T01:52:45.182Z,278.43
2019-02-03T01:55:18.113Z,295.57
2019-02-03T01:57:46.030Z,280.73
2019-02-03T02:00:20.444Z,263.43
2019-02-03T02:02:48.514Z,246.50
2019-02-03T02:05:16.965Z,241.03
2019-02-03T02:07:51.862Z,238.43
2019-02-03T02:10:18.324Z,202.60
2019-02-03T02:12:46.242Z,178.80
2019-02-03T02:15:16.043Z,179.10
2019-02-03T02:17:43.963Z,171.37
2019-02-03T02:20:19.379Z,173.10
2019-02-03T02:22:47.331Z,170.37
2019-02-03T02:25:15.607Z,154.57
2019-02-03T02:27:43.527Z,175.97
2019-02-03T02:30:15.186Z,177.20
2019-02-03T02:32:43.193Z,193.73
2019-02-03T02:35:11.802Z,210.47
2019-02-03T02:37:39.726Z,191.67
2019-02-03T02:40:22.644Z,165.07
2019-02-03T02:42:50.448Z,157.87
2019-02-03T02:45:18.389Z,133.40
2019-02-03T02:47:46.441Z,128.90
2019-02-03T02:50:27.200Z,135.47
2019-02-03T02:52:55.188Z,124.70
2019-02-03T02:55:23.058Z,125.87
2019-02-03T02:57:51.313Z,127.90
2019-02-03T03:00:24.506Z,134.00
2019-02-03T03:02:52.532Z,135.10
2019-02-03T03:05:20.941Z,136.23
2019-02-03T03:07:48.997Z,122.60
2019-02-03T03:10:18.103Z,127.40
2019-02-03T03:12:46.143Z,132.30
2019-02-03T03:15:15.671Z,135.47
2019-02-03T03:17:43.706Z,126.87
2019-02-03T03:20:14.636Z,124.57
2019-02-03T03:22:43.028Z,134.00
2019-02-03T03:25:14.232Z,138.00
2019-02-03T03:27:42.295Z,127.33
2019-02-03T03:30:21.429Z,130.57
2019-02-03T03:32:49.495Z,121.70
2019-02-03T03:35:17.562Z,102.83
2019-02-03T03:37:46.274Z,124.70
2019-02-03T03:40:17.334Z,117.57
2019-02-03T03:42:48.349Z,121.47
2019-02-03T03:45:16.278Z,114.83
2019-02-03T03:47:46.563Z,111.93
2019-02-03T03:50:16.611Z,112.40
2019-02-03T03:52:47.889Z,105.07
2019-02-03T03:55:17.136Z,110.90
2019-02-03T03:57:46.737Z,101.30
2019-02-03T04:00:23.121Z,99.00
2019-02-03T04:02:53.679Z,92.17
2019-02-03T04:05:28.563Z,92.57
2019-02-03T04:07:57.384Z,92.30
2019-02-03T04:10:25.892Z,83.20
2019-02-03T04:12:54.863Z,90.57
2019-02-03T04:15:23.632Z,91.40
2019-02-03T04:17:51.978Z,82.73
2019-02-03T04:20:29.382Z,78.70
2019-02-03T04:22:57.920Z,73.00
2019-02-03T04:25:27.245Z,79.97
2019-02-03T04:27:56.976Z,80.30
2019-02-03T04:30:26.480Z,88.13
2019-02-03T04:32:55.779Z,81.67
2019-02-03T04:35:29.589Z,84.70
2019-02-03T04:38:00.532Z,68.63
2019-02-03T04:40:45.760Z,69.97
2019-02-03T04:43:13.970Z,71.93
2019-02-03T04:45:41.882Z,62.77
2019-02-03T04:48:09.843Z,53.17
2019-02-03T04:50:37.737Z,58.77
2019-02-03T04:53:06.062Z,53.00
2019-02-03T04:55:33.986Z,56.90
2019-02-03T04:58:01.834Z,56.97
2019-02-03T05:00:29.798Z,43.37
2019-02-03T05:02:57.761Z,48.83
2019-02-03T05:05:29.543Z,43.90
2019-02-03T05:07:57.637Z,48.77
2019-02-03T05:10:25.529Z,41.37
2019-02-03T05:12:53.384Z,37.30
2019-02-03T05:15:23.158Z,44.13
2019-02-03T05:17:51.138Z,38.87
2019-02-03T05:20:22.526Z,40.57
2019-02-03T05:22:50.517Z,39.53
2019-02-03T05:25:18.450Z,36.50
2019-02-03T05:27:46.480Z,35.87
2019-02-03T05:30:21.241Z,37.97
2019-02-03T05:32:49.278Z,43.80
2019-02-03T05:35:17.733Z,38.53
2019-02-03T05:37:48.177Z,35.97
2019-02-03T05:40:16.486Z,36.27
2019-02-03T05:42:45.034Z,35.90
2019-02-03T05:45:16.063Z,42.77
2019-02-03T05:47:44.164Z,31.37
2019-02-03T05:50:14.213Z,37.20
2019-02-03T05:52:43.457Z,29.40
2019-02-03T05:55:11.820Z,34.10
2019-02-03T05:57:39.804Z,29.13
2019-02-03T06:00:12.307Z,31.87
2019-02-03T06:02:40.677Z,31.30
2019-02-03T06:05:08.878Z,25.83
2019-02-03T06:07:36.862Z,28.50
2019-02-03T06:10:08.950Z,30.37
2019-02-03T06:12:39.742Z,25.27
2019-02-03T06:15:08.128Z,26.70
2019-02-03T06:17:36.211Z,24.23
2019-02-03T06:20:05.773Z,30.47
2019-02-03T06:22:33.888Z,27.07
2019-02-03T06:25:01.749Z,31.57
2019-02-03T06:27:32.023Z,31.20
2019-02-03T06:29:59.873Z,36.70
2019-02-03T06:32:27.874Z,27.93
2019-02-03T06:34:57.214Z,24.83
2019-02-03T06:37:25.110Z,32.80
2019-02-03T06:39:54.460Z,30.00
2019-02-03T06:42:22.383Z,28.23
2019-02-03T06:44:50.344Z,29.63
2019-02-03T06:47:24.219Z,31.70
2019-02-03T06:49:52.091Z,25.20
2019-02-03T06:52:19.955Z,25.10
2019-02-03T06:54:47.914Z,26.90
2019-02-03T06:57:15.820Z,29.63
2019-02-03T06:59:50.933Z,28.57
2019-02-03T07:02:13.944Z,29.57
2019-02-03T07:04:41.869Z,29.60
2019-02-03T07:07:09.767Z,26.90
2019-02-03T07:09:37.565Z,24.20
2019-02-03T07:12:05.676Z,28.67
2019-02-03T07:14:33.955Z,26.87
2019-02-03T07:17:01.775Z,31.57
2019-02-03T07:19:29.719Z,31.17
2019-02-03T07:21:57.643Z,32.53
2019-02-03T07:24:25.445Z,27.70
2019-02-03T07:26:53.251Z,25.43
2019-02-03T07:29:21.184Z,29.17
2019-02-03T07:31:49.010Z,25.33
2019-02-03T07:34:16.790Z,26.40
2019-02-03T07:36:44.713Z,25.33
2019-02-03T07:39:12.520Z,25.33
2019-02-03T07:41:40.360Z,23.93
2019-02-03T07:44:08.447Z,29.27
2019-02-03T07:46:36.662Z,25.00
2019-02-03T07:49:04.586Z,30.73
2019-02-03T07:51:32.505Z,27.80
2019-02-03T07:54:08.098Z,43.00
2019-02-03T07:56:30.194Z,32.17
2019-02-03T07:58:58.300Z,30.47
2019-02-03T08:01:26.412Z,30.70
2019-02-03T08:03:54.363Z,29.73
2019-02-03T08:06:22.176Z,29.30
2019-02-03T08:08:49.987Z,26.83
2019-02-03T08:11:18.047Z,33.80
2019-02-03T08:13:45.852Z,29.93
2019-02-03T08:16:13.872Z,36.90
2019-02-03T08:18:41.993Z,30.80
2019-02-03T08:21:09.835Z,34.23
2019-02-03T08:23:37.716Z,29.67
2019-02-03T08:26:05.631Z,27.07
2019-02-03T08:28:33.537Z,31.23
2019-02-03T08:31:01.354Z,24.20
2019-02-03T08:33:29.454Z,26.47
2019-02-03T08:35:57.396Z,27.83
2019-02-03T08:38:25.187Z,20.43
2019-02-03T08:40:53.259Z,25.10
2019-02-03T08:43:21.177Z,25.20
2019-02-03T08:45:49.079Z,28.70
2019-02-03T08:48:17.017Z,22.53
2019-02-03T08:50:44.805Z,24.03
2019-02-03T08:53:12.717Z,20.90
2019-02-03T08:55:40.507Z,24.57
2019-02-03T08:58:08.443Z,21.60
2019-02-03T09:00:36.442Z,19.20
2019-02-03T09:03:04.570Z,18.87
2019-02-03T09:05:32.447Z,16.33
2019-02-03T09:08:00.548Z,21.23
2019-02-03T09:10:28.573Z,15.90
2019-02-03T09:12:56.479Z,18.63
2019-02-03T09:15:25.027Z,14.37
2019-02-03T09:17:52.996Z,16.17
2019-02-03T09:20:27.579Z,18.63
2019-02-03T09:22:55.422Z,15.30
2019-02-03T09:25:23.321Z,10.30
2019-02-03T09:27:51.369Z,15.00
2019-02-03T09:30:22.284Z,14.70
2019-02-03T09:32:50.558Z,11.93
2019-02-03T09:35:18.701Z,14.20
2019-02-03T09:37:46.714Z,17.70
2019-02-03T09:40:25.022Z,13.60
2019-02-03T09:42:52.971Z,14.07
2019-02-03T09:45:22.194Z,11.00
2019-02-03T09:47:50.537Z,11.97
2019-02-03T09:50:23.953Z,9.03
2019-02-03T09:52:54.254Z,14.73
2019-02-03T09:55:22.245Z,12.50
2019-02-03T09:57:50.037Z,10.40
2019-02-03T10:00:26.776Z,13.97
2019-02-03T10:02:56.423Z,13.13
2019-02-03T10:05:24.577Z,14.10
2019-02-03T10:07:52.745Z,10.10
2019-02-03T10:10:35.372Z,11.33
2019-02-03T10:13:04.182Z,8.73
2019-02-03T10:15:36.075Z,8.33
2019-02-03T10:18:06.864Z,13.33
2019-02-03T10:20:34.977Z,12.63
2019-02-03T10:23:03.375Z,7.07
2019-02-03T10:25:31.758Z,7.23
2019-02-03T10:27:59.605Z,10.20
2019-02-03T10:30:27.836Z,8.20
2019-02-03T10:32:59.269Z,6.83
2019-02-03T10:35:27.750Z,4.53
2019-02-03T10:37:58.783Z,8.07
2019-02-03T10:40:33.473Z,5.63
2019-02-03T10:43:02.227Z,6.70
2019-02-03T10:45:30.983Z,7.73
2019-02-03T10:47:59.695Z,6.57
2019-02-03T10:50:34.266Z,7.23
2019-02-03T10:53:05.153Z,6.00
2019-02-03T10:55:33.291Z,4.77
2019-02-03T10:58:01.582Z,6.67
2019-02-03T11:00:32.790Z,5.30
2019-02-03T11:03:01.330Z,9.00
2019-02-03T11:05:36.715Z,6.43
2019-02-03T11:08:06.204Z,8.43
2019-02-03T11:10:34.476Z,9.77
2019-02-03T11:13:02.324Z,6.13
2019-02-03T11:15:30.327Z,6.07
2019-02-03T11:17:58.273Z,7.20
2019-02-03T11:20:29.129Z,6.93
2019-02-03T11:23:16.886Z,4.13
2019-02-03T11:25:45.063Z,4.13
2019-02-03T11:28:13.091Z,4.70
2019-02-03T11:30:40.952Z,3.93
2019-02-03T11:33:10.037Z,4.30
2019-02-03T11:35:38.297Z,2.33
2019-02-03T11:38:06.830Z,3.03
2019-02-03T11:40:39.328Z,5.27
2019-02-03T11:43:07.446Z,3.27
2019-02-03T11:45:40.950Z,5.67
2019-02-03T11:48:18.605Z,3.10
2019-02-03T11:50:46.808Z,3.10
2019-02-03T11:53:18.430Z,4.30
2019-02-03T11:55:46.433Z,4.70
2019-02-03T11:58:14.265Z,3.00
2019-02-03T12:00:42.319Z,3.67
2019-02-03T12:03:10.482Z,3.30
2019-02-03T12:05:38.935Z,3.40
2019-02-03T12:08:07.387Z,2.77
2019-02-03T12:10:38.449Z,3.70
2019-02-03T12:13:09.542Z,6.33
2019-02-03T12:15:37.687Z,3.07
2019-02-03T12:18:06.401Z,4.47
2019-02-03T12:20:35.589Z,3.93
2019-02-03T12:23:04.395Z,2.63
2019-02-03T12:25:34.984Z,3.30
2019-02-03T12:28:05.981Z,2.20
2019-02-03T12:30:34.577Z,2.67
2019-02-03T12:33:03.053Z,4.67
2019-02-03T12:35:30.978Z,3.80
2019-02-03T12:37:59.056Z,4.63
2019-02-03T12:40:31.696Z,2.57
2019-02-03T12:42:59.811Z,2.60
2019-02-03T12:45:29.156Z,4.47
2019-02-03T12:47:57.110Z,2.73
2019-02-03T12:50:25.049Z,3.43
2019-02-03T12:52:53.203Z,4.97
2019-02-03T12:55:24.945Z,3.23
2019-02-03T12:57:53.036Z,3.40
2019-02-03T13:00:27.066Z,6.20
2019-02-03T13:02:55.152Z,3.27
2019-02-03T13:05:25.098Z,4.80
2019-02-03T13:07:54.313Z,2.93
2019-02-03T13:10:25.705Z,4.17
2019-02-03T13:12:54.144Z,3.80
2019-02-03T13:15:37.799Z,2.87
2019-02-03T13:18:07.017Z,2.70
2019-02-03T13:20:35.382Z,6.10
2019-02-03T13:23:05.221Z,2.70
2019-02-03T13:25:33.142Z,2.60
2019-02-03T13:28:01.166Z,3.13
2019-02-03T13:30:38.084Z,2.63
2019-02-03T13:33:06.651Z,3.33
2019-02-03T13:35:34.521Z,4.50
2019-02-03T13:38:03.120Z,4.77
2019-02-03T13:40:32.486Z,4.17
2019-02-03T13:43:02.424Z,2.00
2019-02-03T13:45:31.916Z,4.10
2019-02-03T13:48:03.289Z,1.93
2019-02-03T13:50:32.409Z,2.37
2019-02-03T13:53:02.496Z,2.20
2019-02-03T13:55:35.068Z,2.13
2019-02-03T13:58:07.017Z,2.17
2019-02-03T14:00:43.674Z,2.47
2019-02-03T14:03:16.739Z,2.90
2019-02-03T14:05:48.830Z,2.33
2019-02-03T14:08:19.385Z,2.20
2019-02-03T14:10:49.484Z,3.00
2019-02-03T14:13:19.953Z,6.17
2019-02-03T14:15:50.571Z,5.53
2019-02-03T14:18:23.611Z,4.33
2019-02-03T14:20:54.852Z,2.20
2019-02-03T14:23:24.708Z,2.30
2019-02-03T14:25:59.486Z,3.57
2019-02-03T14:28:28.929Z,4.20
2019-02-03T14:31:17.672Z,3.23
2019-02-03T14:33:46.193Z,3.43
2019-02-03T14:36:16.330Z,2.57
2019-02-03T14:38:46.531Z,2.37
2019-02-03T14:41:20.982Z,2.37
2019-02-03T14:43:49.517Z,3.93
2019-02-03T14:46:18.012Z,3.50
2019-02-03T14:48:51.443Z,5.67
2019-02-03T14:51:27.162Z,2.73
2019-02-03T14:53:59.938Z,3.60
2019-02-03T14:56:34.757Z,5.47
2019-02-03T14:59:06.232Z,5.10
2019-02-03T15:01:38.419Z,3.20
2019-02-03T15:04:07.002Z,5.70
2019-02-03T15:06:38.299Z,4.07
2019-02-03T15:09:12.835Z,3.77
2019-02-03T15:11:41.001Z,4.33
2019-02-03T15:14:09.119Z,5.03
2019-02-03T15:16:42.214Z,2.53
2019-02-03T15:19:10.295Z,3.00
2019-02-03T15:21:40.022Z,4.07
2019-02-03T15:24:16.424Z,2.77
2019-02-03T15:26:43.807Z,3.43
2019-02-03T15:29:11.728Z,3.30
2019-02-03T15:31:40.179Z,5.37
2019-02-03T15:34:11.694Z,2.40
2019-02-03T15:36:44.294Z,1.87
2019-02-03T15:39:17.321Z,2.50
2019-02-03T15:41:52.502Z,2.50
2019-02-03T15:44:21.304Z,2.27
2019-02-03T15:46:58.499Z,2.10
2019-02-03T15:49:35.386Z,4.03
2019-02-03T15:52:03.673Z,2.80
2019-02-03T15:54:36.670Z,2.00
2019-02-03T15:57:05.094Z,2.20
2019-02-03T15:59:34.381Z,3.33
2019-02-03T16:02:03.657Z,7.23
2019-02-03T16:04:36.716Z,5.90
2019-02-03T16:07:07.678Z,3.77
2019-02-03T16:09:37.754Z,6.43
2019-02-03T16:12:08.468Z,3.60
2019-02-03T16:14:36.553Z,2.33
2019-02-03T16:17:05.158Z,4.40
2019-02-03T16:19:35.659Z,6.47
2019-02-03T16:22:03.973Z,2.87
2019-02-03T16:24:32.400Z,2.70
2019-02-03T16:27:01.070Z,3.70
2019-02-03T16:29:29.386Z,16.23
2019-02-03T16:31:57.406Z,5.63
2019-02-03T16:34:25.410Z,5.17
2019-02-03T16:36:53.503Z,5.93
2019-02-03T16:39:21.411Z,3.07
2019-02-03T16:41:49.437Z,3.60
2019-02-03T16:44:17.652Z,3.57
2019-02-03T16:46:45.758Z,6.00
2019-02-03T16:49:16.548Z,4.90
2019-02-03T16:51:44.267Z,3.07
2019-02-03T16:54:14.692Z,3.47
2019-02-03T16:56:44.003Z,4.03
2019-02-03T16:59:11.897Z,3.60
2019-02-03T17:01:42.219Z,6.50
2019-02-03T17:04:15.076Z,6.50
2019-02-03T17:06:43.003Z,6.70
2019-02-03T17:09:11.438Z,6.60
2019-02-03T17:11:39.503Z,7.63
2019-02-03T17:14:07.620Z,8.00
2019-02-03T17:16:35.713Z,8.00
2019-02-03T17:19:04.904Z,6.27
2019-02-03T17:21:33.011Z,7.70
2019-02-03T17:24:03.549Z,12.43
2019-02-03T17:26:30.905Z,13.07
2019-02-03T17:28:59.011Z,11.93
2019-02-03T17:31:27.086Z,9.13
2019-02-03T17:35:16.075Z,8.50
2019-02-03T17:37:44.122Z,8.40
2019-02-03T17:40:12.719Z,7.97
2019-02-03T17:42:40.684Z,10.33
2019-02-03T17:45:13.662Z,11.47
2019-02-03T17:47:41.883Z,12.67
2019-02-03T17:50:14.118Z,13.93
2019-02-03T17:52:42.188Z,13.27
2019-02-03T17:55:11.757Z,13.30
2019-02-03T17:57:39.836Z,12.53
2019-02-03T18:00:12.913Z,10.60
2019-02-03T18:02:40.983Z,10.73
2019-02-03T18:05:10.696Z,10.13
2019-02-03T18:07:40.931Z,18.90
2019-02-03T18:10:13.799Z,13.00
2019-02-03T18:12:41.847Z,14.43
2019-02-03T18:15:10.638Z,13.33
2019-02-03T18:17:40.818Z,10.30
2019-02-03T18:20:13.558Z,11.10
2019-02-03T18:22:41.418Z,8.73
2019-02-03T18:25:10.220Z,10.07
2019-02-03T18:27:38.591Z,14.07
2019-02-03T18:30:13.270Z,10.70
2019-02-03T18:32:41.793Z,14.00
2019-02-03T18:35:09.950Z,12.40
2019-02-03T18:37:37.825Z,11.17
2019-02-03T18:40:07.646Z,15.77
2019-02-03T18:42:36.159Z,7.93
2019-02-03T18:45:06.822Z,7.93
2019-02-03T18:47:34.682Z,10.20
2019-02-03T18:50:04.618Z,7.87
2019-02-03T18:52:33.193Z,9.43
2019-02-03T18:55:01.106Z,10.43
2019-02-03T18:57:28.945Z,8.37
2019-02-03T18:59:57.691Z,9.20
2019-02-03T19:02:25.633Z,8.20
2019-02-03T19:04:53.652Z,8.60
2019-02-03T19:07:21.550Z,16.87
2019-02-03T19:09:49.401Z,11.10
2019-02-03T19:12:18.091Z,9.13
2019-02-03T19:14:47.709Z,11.73
2019-02-03T19:17:19.775Z,9.37
2019-02-03T19:19:47.813Z,9.23
2019-02-03T19:22:15.654Z,8.93
2019-02-03T19:24:43.578Z,9.47
2019-02-03T19:27:12.583Z,8.30
2019-02-03T19:29:40.447Z,8.37
2019-02-03T19:32:08.558Z,10.40
2019-02-03T19:34:36.836Z,11.20
2019-02-03T19:37:05.849Z,10.33
2019-02-03T19:39:34.079Z,10.10
2019-02-03T19:42:02.279Z,12.23
2019-02-03T19:44:30.231Z,14.10
2019-02-03T19:47:01.000Z,12.47
2019-02-03T19:49:29.353Z,12.13
2019-02-03T19:52:00.015Z,15.77
2019-02-03T19:54:28.347Z,13.30
2019-02-03T19:56:58.787Z,12.70
2019-02-03T19:59:26.829Z,14.37
2019-02-03T20:01:54.728Z,12.53
2019-02-03T20:04:22.609Z,13.83
2019-02-03T20:06:57.562Z,13.83
2019-02-03T20:09:25.890Z,12.70
2019-02-03T20:11:58.394Z,13.00
2019-02-03T20:14:27.195Z,27.43
2019-02-03T20:16:55.175Z,13.17
2019-02-03T20:19:23.093Z,12.50
2019-02-03T20:21:52.789Z,12.03
2019-02-03T20:24:21.556Z,10.83
2019-02-03T20:26:49.510Z,11.77
2019-02-03T20:29:17.714Z,16.03
2019-02-03T20:31:45.914Z,17.37
2019-02-03T20:34:19.354Z,15.63
2019-02-03T20:36:50.111Z,21.20
2019-02-03T20:39:21.358Z,18.00
2019-02-03T20:41:52.369Z,17.60
2019-02-03T20:44:20.319Z,12.97
2019-02-03T20:46:48.359Z,14.17
2019-02-03T20:49:16.359Z,10.60
2019-02-03T20:51:44.256Z,11.00
2019-02-03T20:54:12.357Z,12.97
2019-02-03T20:56:42.325Z,15.33
2019-02-03T20:59:10.287Z,21.17
2019-02-03T21:01:44.454Z,17.00
2019-02-03T21:04:12.615Z,15.63
2019-02-03T21:06:40.988Z,13.67
2019-02-03T21:09:09.423Z,10.93
2019-02-03T21:11:37.968Z,9.67
2019-02-03T21:14:06.211Z,12.50
2019-02-03T21:16:34.316Z,10.67
2019-02-03T21:19:02.346Z,9.23
2019-02-03T21:21:35.792Z,27.50
2019-02-03T21:24:03.820Z,13.83
2019-02-03T21:26:35.342Z,13.20
2019-02-03T21:29:04.899Z,15.10
2019-02-03T21:31:34.005Z,15.70
2019-02-03T21:34:03.642Z,12.63
2019-02-03T21:36:31.689Z,7.57
2019-02-03T21:39:01.267Z,50.87
2019-02-03T21:41:29.259Z,33.57
2019-02-03T21:43:57.356Z,18.33
2019-02-03T21:46:27.260Z,15.77
2019-02-03T21:48:55.232Z,9.87
2019-02-03T21:51:23.662Z,13.77
2019-02-03T21:53:51.837Z,10.53
2019-02-03T21:56:19.777Z,8.87
2019-02-03T21:58:47.713Z,9.93
2019-02-03T22:01:17.279Z,13.50
2019-02-03T22:03:45.295Z,7.40
2019-02-03T22:06:14.684Z,12.57
2019-02-03T22:08:42.696Z,8.07
2019-02-03T22:11:10.635Z,11.43
2019-02-03T22:13:38.539Z,10.80
2019-02-03T22:16:06.693Z,9.93
2019-02-03T22:18:34.571Z,9.33
2019-02-03T22:21:05.680Z,10.40
2019-02-03T22:23:33.883Z,8.13
2019-02-03T22:26:03.461Z,9.87
2019-02-03T22:28:34.361Z,8.90
2019-02-03T22:31:04.634Z,11.83
2019-02-03T22:33:33.313Z,12.47
2019-02-03T22:36:03.789Z,9.50
2019-02-03T22:38:31.925Z,14.60
2019-02-03T22:41:01.518Z,11.93
2019-02-03T22:43:29.659Z,13.30
2019-02-03T22:46:07.097Z,12.60
2019-02-03T22:48:30.457Z,11.50
2019-02-03T22:50:58.641Z,11.73
2019-02-03T22:53:29.531Z,15.37
2019-02-03T22:55:57.583Z,12.83
2019-02-03T22:58:30.234Z,13.80
2019-02-03T23:01:13.907Z,12.53
2019-02-03T23:04:20.627Z,9.70
2019-02-03T23:06:51.746Z,15.10
2019-02-03T23:09:26.855Z,16.40
2019-02-03T23:11:55.457Z,20.50
2019-02-03T23:14:23.531Z,13.73
2019-02-03T23:16:51.562Z,14.40
2019-02-03T23:19:22.855Z,14.30
2019-02-03T23:21:51.040Z,14.87
2019-02-03T23:24:22.044Z,18.27
2019-02-03T23:26:52.578Z,16.03
2019-02-03T23:29:22.998Z,13.77
2019-02-03T23:31:53.811Z,18.43
2019-02-03T23:34:23.867Z,15.87
2019-02-03T23:36:53.328Z,12.27
2019-02-03T23:39:21.590Z,17.60
2019-02-03T23:41:49.419Z,13.67
2019-02-03T23:44:17.691Z,13.23
2019-02-03T23:46:45.730Z,13.67
2019-02-03T23:49:13.647Z,13.80
2019-02-03T23:51:41.773Z,15.63
2019-02-03T23:54:09.864Z,16.67
2019-02-03T23:56:37.836Z,11.37
2019-02-03T23:59:06.315Z,16.40
